Time;durP1;ratioP1;P1;durP2;ratioP2;P2;SDS_P1;SDS_P2;PMS_P1;PMS_P2;Temp;Humidity;BMP_temperature;BMP_pressure;BME280_temperature;BME280_humidity;BME280_pressure;Samples;Min_cycle;Max_cycle;Signal;HPM_P1;HPM_P2
2023/08/24 00:01:32;;;;;;;1.95;0.73;;;;;;;13.35;55.47;101903.56;4979704;28;20034;-75
2023/08/24 00:03:57;;;;;;;2.78;0.80;;;;;;;13.32;55.53;101910.63;4992584;28;20050;-75
2023/08/24 00:06:23;;;;;;;2.78;0.65;;;;;;;13.28;55.85;101911.63;4993782;28;20161;-76
2023/08/24 00:08:48;;;;;;;1.20;0.52;;;;;;;13.18;55.93;101914.63;4976317;28;20517;-77
2023/08/24 00:11:14;;;;;;;3.97;1.10;;;;;;;13.10;56.10;101910.50;4974151;28;20038;-78
2023/08/24 00:13:48;;;;;;;5.90;1.30;;;;;;;13.07;56.37;101913.25;4982306;28;20034;-75
2023/08/24 00:16:17;;;;;;;1.63;0.98;;;;;;;13.04;56.40;101907.22;4979845;28;20045;-76
2023/08/24 00:18:43;;;;;;;4.00;1.50;;;;;;;12.94;56.40;101917.19;4962325;28;20129;-77
2023/08/24 00:21:08;;;;;;;2.83;1.25;;;;;;;12.88;56.85;101909.53;4979626;28;20597;-77
2023/08/24 00:23:34;;;;;;;1.60;0.80;;;;;;;12.95;56.67;101908.41;4978557;28;21094;-77
2023/08/24 00:25:59;;;;;;;4.88;1.83;;;;;;;13.00;56.28;101900.38;4975970;28;20400;-76
2023/08/24 00:28:28;;;;;;;2.00;1.35;;;;;;;13.15;55.90;101896.38;4994056;28;20125;-77
2023/08/24 00:30:53;;;;;;;1.40;0.90;;;;;;;13.11;55.93;101892.97;4990404;28;20053;-77
2023/08/24 00:33:19;;;;;;;7.05;1.48;;;;;;;13.17;55.92;101897.19;4962728;28;20075;-76
2023/08/24 00:35:45;;;;;;;2.72;1.33;;;;;;;13.19;55.91;101898.84;4978314;28;20608;-77
2023/08/24 00:38:10;;;;;;;5.25;2.15;;;;;;;13.15;55.75;101901.63;4977845;28;20057;-76
2023/08/24 00:40:37;;;;;;;2.83;1.73;;;;;;;13.16;56.18;101903.31;4962949;28;20076;-76
2023/08/24 00:43:04;;;;;;;2.30;1.77;;;;;;;13.10;55.96;101902.63;4990841;28;21384;-78
2023/08/24 00:45:30;;;;;;;3.90;1.73;;;;;;;13.03;56.58;101898.50;4977616;28;20022;-75
2023/08/24 00:47:56;;;;;;;3.03;1.40;;;;;;;13.00;56.42;101890.72;4975578;28;20038;-76
2023/08/24 00:50:21;;;;;;;2.97;1.92;;;;;;;12.99;56.38;101904.75;4964475;28;20036;-75
2023/08/24 00:52:48;;;;;;;2.58;1.92;;;;;;;13.06;56.48;101900.16;4975729;28;20095;-76
2023/08/24 00:55:15;;;;;;;6.28;2.42;;;;;;;13.13;56.39;101911.31;4975835;28;20036;-78
2023/08/24 00:57:41;;;;;;;5.28;3.03;;;;;;;13.16;56.36;101906.81;4957292;28;20176;-76
2023/08/24 01:00:11;;;;;;;3.05;2.75;;;;;;;12.98;56.31;101907.44;4977833;28;20042;-77
2023/08/24 01:02:39;;;;;;;3.13;2.28;;;;;;;12.91;56.48;101896.28;4990117;28;20069;-77
2023/08/24 01:05:06;;;;;;;2.20;1.60;;;;;;;12.84;56.47;101894.78;4993085;28;20051;-76
2023/08/24 01:07:37;;;;;;;5.05;2.55;;;;;;;12.77;56.86;101894.13;4975574;28;20038;-77
2023/08/24 01:10:06;;;;;;;3.92;2.20;;;;;;;12.88;56.39;101897.25;4997428;28;20587;-77
2023/08/24 01:12:35;;;;;;;2.80;1.80;;;;;;;12.98;56.14;101894.31;4979205;28;20518;-77
2023/08/24 01:15:13;;;;;;;2.72;2.22;;;;;;;13.09;55.76;101889.56;4979088;28;20033;-76
2023/08/24 01:17:41;;;;;;;3.03;1.92;;;;;;;12.98;56.03;101895.19;4972110;28;20038;-74
2023/08/24 01:20:10;;;;;;;3.55;2.50;;;;;;;12.91;55.89;101888.41;4975893;28;21225;-76
2023/08/24 01:22:56;;;;;;;3.03;2.10;;;;;;;12.90;56.13;101894.59;4990398;28;20046;-77
2023/08/24 01:25:38;;;;;;;4.63;1.65;;;;;;;12.95;56.29;101891.81;4994903;28;20045;-77
2023/08/24 01:28:06;;;;;;;4.78;1.70;;;;;;;13.05;56.14;101888.81;4974953;28;20133;-78
2023/08/24 01:30:35;;;;;;;2.65;2.08;;;;;;;13.02;56.08;101888.06;4979661;28;20058;-78
2023/08/24 01:33:04;;;;;;;6.80;2.53;;;;;;;12.99;56.45;101888.16;4975155;28;20148;-77
2023/08/24 01:35:30;;;;;;;2.45;2.22;;;;;;;12.91;56.23;101883.16;4980024;28;20567;-78
2023/08/24 01:37:56;;;;;;;3.88;2.28;;;;;;;12.90;56.52;101884.09;5001731;28;20050;-78
2023/08/24 01:40:35;;;;;;;3.25;2.38;;;;;;;12.94;56.44;101882.19;4961324;28;20030;-78
2023/08/24 01:43:07;;;;;;;3.25;2.30;;;;;;;13.03;56.28;101880.13;4993368;28;20080;-76
2023/08/24 01:45:33;;;;;;;3.28;1.85;;;;;;;13.09;56.19;101882.56;4993124;28;20049;-75
2023/08/24 01:48:02;;;;;;;2.88;2.55;;;;;;;13.20;55.50;101876.06;4976452;28;20046;-76
2023/08/24 01:50:29;;;;;;;3.08;1.98;;;;;;;13.31;55.17;101880.00;4981606;28;20056;-77
2023/08/24 01:52:55;;;;;;;3.38;2.25;;;;;;;13.33;54.97;101877.34;4973561;28;20061;-77
2023/08/24 01:55:21;;;;;;;2.97;1.92;;;;;;;13.30;55.19;101885.34;4993509;28;20172;-76
2023/08/24 01:57:48;;;;;;;4.13;2.30;;;;;;;13.27;55.42;101886.31;4997742;28;20037;-76
2023/08/24 02:00:15;;;;;;;3.92;2.40;;;;;;;13.20;55.33;101876.06;4978821;28;20138;-78
2023/08/24 02:02:42;;;;;;;3.22;2.58;;;;;;;13.08;55.62;101875.56;4995905;28;20080;-75
2023/08/24 02:05:08;;;;;;;4.47;2.67;;;;;;;12.99;55.91;101878.53;4992371;28;20599;-77
2023/08/24 02:07:33;;;;;;;2.75;2.30;;;;;;;13.05;55.59;101877.47;4979154;28;20124;-76
2023/08/24 02:09:59;;;;;;;2.47;1.98;;;;;;;13.02;56.09;101873.16;4981813;28;20380;-78
2023/08/24 02:12:24;;;;;;;2.97;1.83;;;;;;;13.09;55.75;101869.44;4982034;28;20408;-76
2023/08/24 02:14:50;;;;;;;2.60;2.28;;;;;;;13.02;55.92;101869.69;4979458;28;20056;-76
2023/08/24 02:17:16;;;;;;;5.60;2.67;;;;;;;12.92;56.20;101861.28;4976002;28;20072;-77
2023/08/24 02:19:41;;;;;;;3.30;2.28;;;;;;;12.93;56.32;101851.63;4979894;28;20134;-75
2023/08/24 02:22:08;;;;;;;3.72;2.03;;;;;;;12.87;56.27;101855.31;4981907;28;20029;-75
2023/08/24 02:24:34;;;;;;;3.70;2.22;;;;;;;12.78;56.42;101858.25;4982840;28;20041;-77
2023/08/24 02:27:00;;;;;;;4.70;1.92;;;;;;;12.89;56.67;101857.00;4963568;28;20117;-77
2023/08/24 02:29:25;;;;;;;2.40;1.88;;;;;;;12.86;56.50;101853.59;4995660;28;20073;-75
2023/08/24 02:31:51;;;;;;;2.00;1.65;;;;;;;12.94;56.54;101843.72;4982515;28;20022;-77
2023/08/24 02:34:17;;;;;;;3.53;1.60;;;;;;;12.98;56.31;101849.69;4979479;28;20914;-77
2023/08/24 02:36:43;;;;;;;2.70;1.42;;;;;;;12.98;56.03;101844.44;4997164;28;20124;-77
2023/08/24 02:39:08;;;;;;;3.50;1.98;;;;;;;12.86;56.14;101840.50;4989403;28;20039;-75
2023/08/24 02:41:35;;;;;;;4.63;1.55;;;;;;;12.74;56.20;101844.41;4983479;28;20053;-78
2023/08/24 02:44:01;;;;;;;3.55;1.42;;;;;;;12.64;56.53;101840.31;4994836;28;20029;-78
2023/08/24 02:46:26;;;;;;;2.10;1.30;;;;;;;12.71;56.44;101834.00;4978528;28;20136;-76
2023/08/24 02:48:52;;;;;;;4.55;1.20;;;;;;;12.69;56.37;101849.81;4995163;28;20393;-77
2023/08/24 02:51:17;;;;;;;1.63;1.13;;;;;;;12.74;56.27;101849.66;4967142;28;20045;-78
2023/08/24 02:53:43;;;;;;;2.22;1.27;;;;;;;12.72;56.12;101848.00;4980381;28;20109;-77
2023/08/24 02:56:08;;;;;;;1.98;0.95;;;;;;;12.77;56.21;101848.69;4984361;28;20071;-77
2023/08/24 02:58:34;;;;;;;2.20;1.00;;;;;;;12.89;55.91;101850.88;4994277;28;20115;-76
2023/08/24 03:01:06;;;;;;;1.42;1.23;;;;;;;12.87;55.67;101847.44;4995227;28;20030;-77
2023/08/24 03:03:31;;;;;;;3.50;1.35;;;;;;;12.90;55.76;101849.97;4992745;28;20049;-75
2023/08/24 03:05:59;;;;;;;2.58;1.58;;;;;;;12.88;55.72;101841.31;4976364;28;20518;-77
2023/08/24 03:08:28;;;;;;;5.55;2.03;;;;;;;12.88;55.56;101841.31;4944347;28;20088;-77
2023/08/24 03:10:53;;;;;;;5.13;1.75;;;;;;;12.72;55.62;101824.38;4973648;28;20037;-76
2023/08/24 03:13:19;;;;;;;2.47;1.80;;;;;;;12.59;55.72;101827.38;4976776;28;20053;-77
2023/08/24 03:15:45;;;;;;;2.65;1.90;;;;;;;12.49;56.26;101818.06;4994050;28;20034;-78
2023/08/24 03:18:13;;;;;;;1.92;1.15;;;;;;;12.55;56.31;101820.50;4991594;28;20046;-77
2023/08/24 03:20:39;;;;;;;2.17;1.35;;;;;;;12.72;55.97;101811.25;4981075;28;20061;-77
2023/08/24 03:23:05;;;;;;;2.15;1.10;;;;;;;12.73;55.66;101818.22;4982429;28;20100;-76
2023/08/24 03:25:35;;;;;;;2.20;1.05;;;;;;;12.74;55.63;101809.44;4975405;28;20068;-78
2023/08/24 03:28:00;;;;;;;2.55;1.60;;;;;;;12.83;55.55;101815.22;4976554;28;20046;-77
2023/08/24 03:30:27;;;;;;;2.13;1.52;;;;;;;12.82;55.43;101812.66;4979645;28;20041;-77
2023/08/24 03:32:53;;;;;;;2.33;1.10;;;;;;;12.84;55.31;101816.91;4976650;28;20049;-77
2023/08/24 03:35:18;;;;;;;1.90;0.77;;;;;;;12.85;55.30;101817.81;4993688;28;20847;-76
2023/08/24 03:37:44;;;;;;;1.63;0.90;;;;;;;12.77;55.33;101812.81;4978459;28;20054;-78
2023/08/24 03:40:10;;;;;;;3.20;1.50;;;;;;;12.77;55.16;101822.44;4977193;28;20030;-75
2023/08/24 03:42:35;;;;;;;1.67;1.13;;;;;;;12.74;55.44;101820.78;4974549;28;20093;-76
2023/08/24 03:45:01;;;;;;;1.45;0.80;;;;;;;12.70;55.30;101820.03;4979982;28;20028;-76
2023/08/24 03:47:26;;;;;;;1.88;0.98;;;;;;;12.70;55.51;101814.78;4975983;28;20032;-76
2023/08/24 03:49:52;;;;;;;1.80;1.30;;;;;;;12.80;55.13;101814.47;4982968;28;20818;-77
2023/08/24 03:52:17;;;;;;;1.75;1.23;;;;;;;12.82;55.29;101817.88;4992065;28;20034;-75
2023/08/24 03:54:43;;;;;;;1.73;0.82;;;;;;;12.75;54.96;101819.00;4961344;28;20700;-78
2023/08/24 03:57:08;;;;;;;1.35;0.98;;;;;;;12.67;55.26;101822.72;4979448;28;20378;-78
2023/08/24 03:59:35;;;;;;;1.90;1.67;;;;;;;12.62;55.36;101821.16;4976933;28;20115;-76
2023/08/24 04:02:02;;;;;;;3.38;2.05;;;;;;;12.47;55.66;101814.69;4964616;28;20041;-78
2023/08/24 04:04:28;;;;;;;4.43;1.58;;;;;;;12.34;56.18;101819.47;4978911;28;20052;-77
2023/08/24 04:06:54;;;;;;;2.95;1.52;;;;;;;12.35;56.36;101828.16;4975827;28;20029;-76
2023/08/24 04:09:21;;;;;;;5.25;1.48;;;;;;;12.45;56.36;101830.44;4978650;28;20121;-78
2023/08/24 04:11:46;;;;;;;3.88;1.77;;;;;;;12.49;56.56;101828.56;4973334;28;20129;-77
2023/08/24 04:14:16;;;;;;;1.83;1.63;;;;;;;12.52;56.50;101815.38;4980017;28;20045;-76
2023/08/24 04:16:42;;;;;;;2.20;2.00;;;;;;;12.57;56.53;101813.44;4977550;28;20065;-77
2023/08/24 04:19:08;;;;;;;3.42;1.77;;;;;;;12.64;56.77;101820.19;4992157;28;20264;-78
2023/08/24 04:21:34;;;;;;;2.20;1.42;;;;;;;12.76;56.21;101818.09;4993922;28;20041;-78
2023/08/24 04:24:00;;;;;;;2.78;2.28;;;;;;;12.83;56.35;101822.25;4993100;28;20105;-78
2023/08/24 04:26:25;;;;;;;6.28;2.58;;;;;;;13.02;56.20;101825.06;4993619;28;20026;-78
2023/08/24 04:28:51;;;;;;;4.63;2.33;;;;;;;13.03;55.86;101809.28;4974857;28;20100;-76
2023/08/24 04:31:16;;;;;;;5.00;2.45;;;;;;;12.99;55.45;101820.78;4979083;28;20033;-76
2023/08/24 04:33:42;;;;;;;3.88;3.03;;;;;;;12.95;55.85;101816.56;4990692;28;20068;-76
2023/08/24 04:36:07;;;;;;;3.33;2.75;;;;;;;12.95;55.63;101821.81;4993314;28;20599;-77
2023/08/24 04:38:35;;;;;;;2.67;1.95;;;;;;;13.04;56.11;101818.84;4973114;28;20080;-77
2023/08/24 04:41:01;;;;;;;2.72;2.40;;;;;;;13.16;55.72;101817.56;4981368;28;20582;-79
2023/08/24 04:43:26;;;;;;;3.38;2.78;;;;;;;13.14;55.50;101818.53;4972730;28;20046;-77
2023/08/24 04:45:54;;;;;;;8.35;2.17;;;;;;;13.04;55.75;101818.84;4995641;28;20056;-76
2023/08/24 04:48:21;;;;;;;4.35;2.47;;;;;;;13.05;55.97;101828.47;4988741;28;20050;-76
2023/08/24 04:50:48;;;;;;;5.75;2.20;;;;;;;13.17;56.23;101816.66;4979716;28;20033;-77
2023/08/24 04:53:16;;;;;;;3.38;2.45;;;;;;;13.17;55.63;101819.28;4971108;28;20447;-76
2023/08/24 04:55:41;;;;;;;3.38;3.08;;;;;;;13.21;55.67;101815.63;4979728;28;20919;-77
2023/08/24 04:58:08;;;;;;;5.90;3.42;;;;;;;13.19;55.75;101806.09;4972706;28;20046;-78
2023/08/24 05:00:34;;;;;;;4.82;3.15;;;;;;;13.19;55.60;101806.97;4959892;28;20049;-76
2023/08/24 05:03:01;;;;;;;4.93;3.95;;;;;;;13.25;55.77;101808.47;4995074;28;20069;-77
2023/08/24 05:05:29;;;;;;;4.25;3.10;;;;;;;13.21;55.86;101797.25;4985335;28;20175;-78
2023/08/24 05:07:55;;;;;;;7.05;3.28;;;;;;;13.29;55.87;101791.72;4977088;28;20049;-76
2023/08/24 05:10:21;;;;;;;4.88;3.13;;;;;;;13.38;56.09;101796.63;4991278;28;20045;-77
2023/08/24 05:12:46;;;;;;;8.80;4.85;;;;;;;13.64;55.32;101805.34;4976344;28;20042;-77
2023/08/24 05:15:13;;;;;;;5.55;3.25;;;;;;;13.80;54.93;101808.22;4979889;28;20042;-77
2023/08/24 05:17:39;;;;;;;10.32;2.95;;;;;;;13.84;54.15;101810.69;4955949;28;20137;-77
2023/08/24 05:20:10;;;;;;;5.68;3.42;;;;;;;13.82;54.56;101802.00;4976096;28;20034;-76
2023/08/24 05:22:36;;;;;;;7.05;4.40;;;;;;;13.97;54.15;101799.69;4957072;28;20519;-76
2023/08/24 05:25:02;;;;;;;4.15;3.00;;;;;;;14.36;54.21;101789.31;4980003;28;20069;-77
2023/08/24 05:27:28;;;;;;;4.20;3.08;;;;;;;14.82;53.61;101799.72;4978447;28;20052;-75
2023/08/24 05:29:53;;;;;;;7.85;3.17;;;;;;;16.49;48.67;101794.56;4995166;28;20446;-74
2023/08/24 05:32:19;;;;;;;6.53;3.80;;;;;;;18.24;44.79;101797.53;4981426;28;20651;-75
2023/08/24 05:34:46;;;;;;;5.00;3.72;;;;;;;19.75;41.52;101785.69;4981459;28;20076;-75
2023/08/24 05:37:11;;;;;;;3.60;2.63;;;;;;;20.66;40.21;101788.50;4995109;28;20034;-75
2023/08/24 05:39:38;;;;;;;9.80;3.08;;;;;;;21.35;37.08;101787.22;4991019;28;20053;-76
2023/08/24 05:42:04;;;;;;;5.05;3.10;;;;;;;21.22;36.89;101781.06;5001007;28;20038;-75
2023/08/24 05:44:29;;;;;;;2.88;2.15;;;;;;;21.13;37.64;101771.06;4994402;28;20042;-76
2023/08/24 05:46:55;;;;;;;4.28;2.35;;;;;;;21.56;36.27;101770.69;4982697;28;20042;-75
2023/08/24 05:49:21;;;;;;;4.70;2.17;;;;;;;22.22;36.29;101772.94;4995556;28;20053;-77
2023/08/24 05:51:46;;;;;;;4.20;2.83;;;;;;;22.69;34.26;101769.31;4998760;28;20055;-76
2023/08/24 05:54:13;;;;;;;3.58;1.92;;;;;;;23.09;34.49;101765.34;4979506;28;20081;-76
2023/08/24 05:56:39;;;;;;;5.45;2.60;;;;;;;23.86;32.91;101764.50;4985075;28;20046;-76
2023/08/24 05:59:04;;;;;;;3.33;2.05;;;;;;;24.77;31.73;101771.03;4998102;28;20041;-79
2023/08/24 06:01:30;;;;;;;5.28;2.55;;;;;;;25.21;30.49;101771.66;4985378;28;20030;-77
2023/08/24 06:03:58;;;;;;;2.55;1.20;;;;;;;25.76;31.03;101774.75;4984434;28;20045;-77
2023/08/24 06:06:23;;;;;;;3.58;2.17;;;;;;;25.56;30.21;101770.38;4982184;28;20121;-76
2023/08/24 06:08:49;;;;;;;5.55;1.55;;;;;;;25.53;30.28;101762.59;4984445;28;20054;-77
2023/08/24 06:11:14;;;;;;;10.35;1.80;;;;;;;25.40;30.56;101770.88;4998026;28;20738;-77
2023/08/24 06:13:40;;;;;;;5.40;1.73;;;;;;;25.83;29.68;101764.31;4976696;28;20086;-77
2023/08/24 06:16:06;;;;;;;8.52;1.75;;;;;;;26.77;28.79;101769.00;4986972;28;20048;-79
2023/08/24 06:18:31;;;;;;;3.05;0.70;;;;;;;26.58;28.38;101757.38;4982826;28;20116;-77
2023/08/24 06:20:56;;;;;;;3.72;1.27;;;;;;;26.95;28.63;101761.84;4993985;28;20052;-77
2023/08/24 06:23:22;;;;;;;4.43;1.52;;;;;;;27.60;27.07;101766.28;4966971;28;20066;-76
2023/08/24 06:25:47;;;;;;;9.35;1.95;;;;;;;27.44;27.71;101766.97;4984977;28;20034;-77
2023/08/24 06:28:13;;;;;;;2.67;1.58;;;;;;;26.93;28.59;101763.84;4984886;28;20888;-76
2023/08/24 06:30:41;;;;;;;5.32;1.45;;;;;;;26.74;27.87;101771.97;4981413;28;20036;-78
2023/08/24 06:33:07;;;;;;;2.85;0.75;;;;;;;27.16;27.31;101766.16;4998876;28;20066;-78
2023/08/24 06:35:36;;;;;;;3.00;1.70;;;;;;;26.20;29.00;101761.78;4967449;28;20135;-77
2023/08/24 06:38:03;;;;;;;3.33;1.10;;;;;;;26.20;29.30;101761.78;4965334;28;20117;-76
2023/08/24 06:40:29;;;;;;;4.38;0.88;;;;;;;27.01;28.25;101773.84;4968044;28;20049;-75
2023/08/24 06:42:56;;;;;;;4.60;1.00;;;;;;;27.81;27.42;101769.56;4987536;28;20056;-75
2023/08/24 06:45:25;;;;;;;4.70;0.82;;;;;;;28.23;26.95;101774.28;4983658;28;20109;-76
2023/08/24 06:47:51;;;;;;;1.88;0.60;;;;;;;27.83;27.94;101772.94;4980914;28;20045;-76
2023/08/24 06:50:17;;;;;;;1.80;0.60;;;;;;;28.94;26.75;101766.97;4997944;28;20057;-76
2023/08/24 06:52:42;;;;;;;1.63;0.63;;;;;;;29.14;25.57;101757.66;4979195;28;20072;-77
2023/08/24 06:55:11;;;;;;;3.65;0.60;;;;;;;29.49;24.75;101749.50;5000062;28;20115;-76
2023/08/24 06:57:38;;;;;;;3.15;0.52;;;;;;;29.00;25.46;101752.88;4997052;28;20045;-78
2023/08/24 07:00:08;;;;;;;2.75;0.30;;;;;;;28.93;24.87;101749.16;5004264;28;20127;-76
2023/08/24 07:02:36;;;;;;;5.22;0.40;;;;;;;29.05;24.79;101747.84;5021553;28;20122;-77
2023/08/24 07:05:04;;;;;;;2.97;0.40;;;;;;;28.95;25.74;101739.09;5019380;28;20050;-79
2023/08/24 07:07:30;;;;;;;2.47;0.50;;;;;;;29.57;24.35;101731.50;5002854;28;20045;-78
2023/08/24 07:09:56;;;;;;;3.05;0.55;;;;;;;29.39;24.89;101729.97;5006979;28;20045;-77
2023/08/24 07:12:21;;;;;;;1.30;0.20;;;;;;;30.45;23.88;101723.72;5018201;28;20104;-78
2023/08/24 07:14:47;;;;;;;3.35;0.47;;;;;;;30.72;23.49;101714.38;4999794;28;20101;-78
2023/08/24 07:17:12;;;;;;;1.77;0.47;;;;;;;30.03;23.46;101714.00;5003675;28;20069;-77
2023/08/24 07:19:38;;;;;;;2.97;0.50;;;;;;;29.29;25.10;101713.97;4984678;28;20036;-78
2023/08/24 07:22:04;;;;;;;2.65;0.50;;;;;;;29.85;24.85;101715.03;4986364;28;20092;-78
2023/08/24 07:24:30;;;;;;;2.25;0.30;;;;;;;29.06;25.12;101717.25;4964087;28;20069;-78
2023/08/24 07:26:56;;;;;;;5.40;0.60;;;;;;;28.75;25.66;101719.66;4984049;28;20029;-77
2023/08/24 07:29:21;;;;;;;2.78;0.45;;;;;;;28.48;25.84;101712.63;4996977;28;20069;-79
2023/08/24 07:31:47;;;;;;;2.70;0.30;;;;;;;27.78;26.67;101710.75;4983265;28;20038;-77
2023/08/24 07:34:14;;;;;;;4.13;0.30;;;;;;;28.17;26.47;101697.00;4981802;28;20081;-77
2023/08/24 07:36:40;;;;;;;2.22;0.70;;;;;;;28.87;24.36;101701.38;4979299;28;20277;-77
2023/08/24 07:39:05;;;;;;;7.65;0.30;;;;;;;28.68;25.32;101711.41;4980454;28;20041;-78
2023/08/24 07:41:34;;;;;;;2.38;0.30;;;;;;;28.43;25.50;101701.50;4979449;28;20124;-76
2023/08/24 07:43:59;;;;;;;4.85;0.30;;;;;;;28.54;25.90;101706.59;4977500;28;20049;-75
2023/08/24 07:46:25;;;;;;;4.47;0.40;;;;;;;28.63;25.48;101705.66;4981270;28;20037;-75
2023/08/24 07:48:50;;;;;;;4.28;0.40;;;;;;;28.48;25.42;101708.09;4986641;28;20772;-75
2023/08/24 07:51:15;;;;;;;3.95;0.60;;;;;;;29.24;24.52;101700.13;4994200;28;20082;-76
2023/08/24 07:53:41;;;;;;;2.80;0.40;;;;;;;28.77;25.49;101689.91;4974345;28;20034;-75
2023/08/24 07:56:07;;;;;;;3.20;0.60;;;;;;;28.95;25.28;101693.34;4992109;28;20080;-75
2023/08/24 07:58:33;;;;;;;2.83;0.40;;;;;;;29.62;25.40;101681.69;4975634;28;20139;-74
2023/08/24 08:01:01;;;;;;;4.75;0.60;;;;;;;29.86;23.50;101687.06;4975381;28;20038;-77
2023/08/24 08:03:27;;;;;;;3.33;0.57;;;;;;;30.46;23.23;101687.63;4975274;28;20057;-76
2023/08/24 08:05:52;;;;;;;4.13;0.77;;;;;;;30.95;22.46;101682.03;4975727;28;20621;-77
2023/08/24 08:08:18;;;;;;;2.08;0.47;;;;;;;31.26;22.16;101682.03;4970607;28;20098;-75
2023/08/24 08:10:44;;;;;;;6.25;0.82;;;;;;;29.87;23.26;101691.44;4988601;28;20034;-75
2023/08/24 08:13:12;;;;;;;3.80;0.80;;;;;;;29.68;23.76;101683.72;4991222;28;20049;-75
2023/08/24 08:15:39;;;;;;;2.95;0.63;;;;;;;29.88;23.83;101676.97;4973885;28;20614;-76
2023/08/24 08:18:05;;;;;;;5.60;0.93;;;;;;;30.92;22.87;101677.00;4988751;28;20784;-77
2023/08/24 08:20:31;;;;;;;1.30;0.28;;;;;;;30.57;23.47;101671.09;4978030;28;20043;-76
2023/08/24 08:22:56;;;;;;;1.40;0.43;;;;;;;29.93;23.13;101668.34;4988562;28;20132;-72
2023/08/24 08:25:22;;;;;;;1.55;0.95;;;;;;;29.41;24.04;101672.22;4991432;28;20116;-75
2023/08/24 08:27:48;;;;;;;4.63;0.80;;;;;;;30.23;23.44;101669.50;4987907;28;20060;-76
2023/08/24 08:30:15;;;;;;;1.73;0.70;;;;;;;29.83;23.73;101665.84;4977400;28;20026;-75
2023/08/24 08:32:40;;;;;;;4.32;0.75;;;;;;;29.53;24.49;101662.81;4959184;28;20213;-76
2023/08/24 08:35:07;;;;;;;1.02;0.40;;;;;;;28.90;24.81;101660.69;4992215;28;20544;-74
2023/08/24 08:37:32;;;;;;;1.17;0.30;;;;;;;28.40;25.37;101666.88;4992091;28;20057;-75
2023/08/24 08:39:58;;;;;;;1.15;0.60;;;;;;;28.32;24.92;101676.59;4976184;28;20041;-76
2023/08/24 08:42:24;;;;;;;3.20;0.40;;;;;;;29.99;24.82;101671.22;4976982;28;20033;-76
2023/08/24 08:44:53;;;;;;;2.28;0.50;;;;;;;29.22;24.64;101667.19;4973274;28;20722;-76
2023/08/24 08:47:20;;;;;;;2.70;0.65;;;;;;;28.07;25.47;101672.03;4974274;28;20044;-77
2023/08/24 08:49:48;;;;;;;1.17;0.60;;;;;;;28.48;26.27;101664.22;4973864;28;20044;-76
2023/08/24 08:52:13;;;;;;;2.55;0.95;;;;;;;28.32;25.68;101668.53;4955938;28;20065;-77
2023/08/24 08:54:39;;;;;;;2.20;0.35;;;;;;;28.38;26.42;101667.03;4983531;28;20030;-77
2023/08/24 08:57:06;;;;;;;2.60;0.73;;;;;;;28.04;25.89;101657.06;4974852;28;20041;-75
2023/08/24 08:59:33;;;;;;;2.25;0.30;;;;;;;28.28;26.30;101660.94;4959919;28;20061;-75
2023/08/24 09:02:03;;;;;;;1.60;0.47;;;;;;;28.27;26.00;101664.63;4985734;28;20224;-75
2023/08/24 09:04:32;;;;;;;2.70;0.50;;;;;;;28.65;25.90;101663.28;4976599;28;20152;-76
2023/08/24 09:07:00;;;;;;;1.60;0.65;;;;;;;27.85;26.01;101652.75;4971744;28;20042;-74
2023/08/24 09:09:27;;;;;;;2.88;0.50;;;;;;;26.93;27.17;101656.56;4988279;28;20034;-77
2023/08/24 09:11:53;;;;;;;1.35;0.55;;;;;;;25.46;29.30;101640.03;4989707;28;20507;-76
2023/08/24 09:14:19;;;;;;;1.75;0.47;;;;;;;24.88;30.50;101628.41;4968720;28;20675;-76
2023/08/24 09:16:45;;;;;;;4.43;0.88;;;;;;;24.64;31.56;101626.94;4988327;28;20038;-77
2023/08/24 09:19:12;;;;;;;1.60;0.38;;;;;;;24.82;31.73;101611.09;4984984;28;20096;-77
2023/08/24 09:21:39;;;;;;;2.63;0.52;;;;;;;24.57;31.55;101615.94;4975578;28;20040;-76
2023/08/24 09:24:06;;;;;;;3.45;0.65;;;;;;;24.96;31.08;101615.19;4977456;28;20046;-75
2023/08/24 09:26:33;;;;;;;2.45;0.65;;;;;;;25.03;31.07;101637.75;4974579;28;20042;-76
2023/08/24 09:29:00;;;;;;;5.97;0.65;;;;;;;24.87;31.08;101632.91;4975448;28;21286;-76
2023/08/24 09:31:44;;;;;;;2.83;0.80;;;;;;;24.90;32.19;101621.09;4974135;28;20127;-76
2023/08/24 09:34:10;;;;;;;9.23;1.05;;;;;;;25.03;31.24;101627.88;4959123;28;20041;-77
2023/08/24 09:36:37;;;;;;;3.08;0.82;;;;;;;24.87;31.12;101621.38;4987775;28;20582;-76
2023/08/24 09:39:10;;;;;;;7.72;0.70;;;;;;;24.84;32.98;101622.50;4970726;28;20160;-74
2023/08/24 09:41:46;;;;;;;3.15;1.15;;;;;;;24.89;31.53;101622.91;4971421;28;20067;-75
2023/08/24 09:44:12;;;;;;;1.80;0.55;;;;;;;24.76;32.02;101603.63;4975507;28;20525;-75
2023/08/24 09:46:38;;;;;;;2.10;0.75;;;;;;;24.99;31.75;101610.41;4973584;28;20034;-76
2023/08/24 09:49:08;;;;;;;3.03;0.60;;;;;;;25.23;31.74;101609.19;4975390;28;20156;-75
2023/08/24 09:51:35;;;;;;;3.65;1.20;;;;;;;24.84;32.58;101601.94;4972176;28;20111;-74
2023/08/24 09:54:05;;;;;;;1.83;1.00;;;;;;;25.47;31.14;101593.53;4980445;28;20041;-76
2023/08/24 09:56:35;;;;;;;5.28;2.25;;;;;;;24.98;31.49;101586.53;4981674;28;20050;-77
2023/08/24 09:59:09;;;;;;;4.28;0.80;;;;;;;24.96;32.07;101578.59;4968011;28;20034;-80
2023/08/24 10:01:36;;;;;;;6.28;1.05;;;;;;;24.99;31.99;101572.97;4977486;28;20038;-77
2023/08/24 10:04:05;;;;;;;3.08;1.08;;;;;;;24.97;32.53;101577.66;4994865;28;20106;-77
2023/08/24 10:06:32;;;;;;;7.43;1.77;;;;;;;25.14;31.42;101569.91;4978766;28;20133;-78
2023/08/24 10:09:04;;;;;;;5.82;1.40;;;;;;;25.43;31.83;101572.56;4980507;28;20216;-78
2023/08/24 10:11:34;;;;;;;5.10;1.17;;;;;;;24.81;32.74;101569.28;4984627;28;20040;-78
2023/08/24 10:14:07;;;;;;;8.25;1.52;;;;;;;24.44;32.75;101561.91;4979776;28;20545;-76
2023/08/24 10:16:35;;;;;;;5.85;1.33;;;;;;;24.52;33.17;101564.72;4976114;28;20073;-77
2023/08/24 10:19:02;;;;;;;4.93;1.45;;;;;;;24.68;32.39;101568.69;4997633;28;20784;-78
2023/08/24 10:21:28;;;;;;;3.70;1.85;;;;;;;24.82;31.61;101568.31;4964067;28;20042;-79
2023/08/24 10:23:56;;;;;;;2.42;1.05;;;;;;;24.67;33.17;101559.84;4963714;28;20106;-77
2023/08/24 10:26:26;;;;;;;2.63;1.25;;;;;;;24.69;33.11;101562.38;5001312;28;20488;-77
2023/08/24 10:28:52;;;;;;;2.85;1.27;;;;;;;24.58;33.45;101558.84;4989948;28;20041;-77
2023/08/24 10:31:19;;;;;;;2.65;0.90;;;;;;;25.36;33.02;101558.91;4986544;28;20045;-77
2023/08/24 10:33:46;;;;;;;5.13;1.88;;;;;;;25.31;33.14;101561.19;4982605;28;20077;-77
2023/08/24 10:36:14;;;;;;;4.32;1.55;;;;;;;24.84;32.60;101552.97;4987974;28;20084;-77
2023/08/24 10:38:44;;;;;;;2.90;1.30;;;;;;;24.84;33.30;101552.97;4979626;28;20043;-77
2023/08/24 10:41:13;;;;;;;6.63;1.55;;;;;;;24.67;33.52;101551.81;4982671;28;20104;-78
2023/08/24 10:43:50;;;;;;;4.43;2.17;;;;;;;24.27;33.96;101543.81;4967205;28;20549;-78
2023/08/24 10:46:19;;;;;;;3.72;1.70;;;;;;;23.97;34.82;101534.88;4996057;28;20058;-77
2023/08/24 10:48:44;;;;;;;9.27;3.25;;;;;;;24.03;34.20;101521.81;4996655;28;20170;-78
2023/08/24 10:51:17;;;;;;;4.28;2.25;;;;;;;24.10;34.53;101506.09;4979728;28;20108;-77
2023/08/24 10:53:48;;;;;;;4.88;1.70;;;;;;;24.16;34.22;101497.53;4995872;28;20661;-77
2023/08/24 10:56:18;;;;;;;6.55;2.85;;;;;;;23.99;34.49;101492.81;4957796;28;20037;-77
2023/08/24 10:58:47;;;;;;;4.65;2.35;;;;;;;23.78;34.60;101501.72;4991242;28;20046;-75
2023/08/24 11:01:21;;;;;;;5.57;1.60;;;;;;;23.65;35.64;101485.06;4993214;28;20834;-75
2023/08/24 11:03:54;;;;;;;3.58;1.80;;;;;;;24.22;34.00;101475.63;4969818;28;20408;-76
2023/08/24 11:06:25;;;;;;;7.40;2.55;;;;;;;24.27;33.90;101466.38;4993291;28;20064;-75
2023/08/24 11:09:06;;;;;;;;;;;;;;;23.73;35.04;101450.56;4977051;28;20048;-75
2023/08/24 11:11:32;;;;;;;4.10;2.55;;;;;;;23.94;34.48;101447.00;4977752;28;19921;-75
2023/08/24 11:14:13;;;;;;;5.57;2.38;;;;;;;24.07;34.54;101446.78;4956738;28;20057;-77
2023/08/24 11:16:39;;;;;;;3.40;2.45;;;;;;;24.07;34.84;101442.28;4974132;28;20046;-76
2023/08/24 11:19:06;;;;;;;5.75;3.10;;;;;;;24.15;34.34;101442.44;4976632;28;20112;-75
2023/08/24 11:21:33;;;;;;;5.35;2.70;;;;;;;23.88;34.68;101431.53;4974760;28;20038;-75
2023/08/24 11:24:00;;;;;;;7.95;3.47;;;;;;;23.59;35.43;101421.59;4978019;28;20076;-76